createdAt,value
2022-11-10T00:03:08.180Z,100411.27
2022-11-10T00:06:03.496Z,100414.92
2022-11-10T00:08:55.119Z,100409.67
2022-11-10T00:11:51.401Z,100418.02
2022-11-10T00:14:57.826Z,100420.61
2022-11-10T00:17:50.161Z,100425.12
2022-11-10T00:20:41.767Z,100425.48
2022-11-10T00:23:34.593Z,100427.46
2022-11-10T00:26:35.646Z,100429.08
2022-11-10T00:29:28.010Z,100432.05
2022-11-10T00:32:18.220Z,100436.02
2022-11-10T00:35:23.029Z,100437.34
2022-11-10T00:38:14.730Z,100436.77
2022-11-10T00:41:05.292Z,100440.61
2022-11-10T00:44:00.399Z,100444.13
2022-11-10T00:46:52.592Z,100444.67
2022-11-10T00:49:40.321Z,100445.23
2022-11-10T00:52:32.878Z,100441.67
2022-11-10T00:55:53.633Z,100438.52
2022-11-10T00:59:14.577Z,100442.73
2022-11-10T01:02:02.736Z,100442.14
2022-11-10T01:04:50.733Z,100439.44
2022-11-10T01:07:41.364Z,100443.52
2022-11-10T01:10:30.429Z,100447.63
2022-11-10T01:13:22.704Z,100448.45
2022-11-10T01:16:17.354Z,100442.27
2022-11-10T01:19:05.084Z,100443.64
2022-11-10T01:21:55.668Z,100451.52
2022-11-10T01:24:46.222Z,100453.36
2022-11-10T01:27:34.921Z,100451.36
2022-11-10T01:30:22.787Z,100448.70
2022-11-10T01:33:10.107Z,100450.60
2022-11-10T01:36:00.287Z,100456.30
2022-11-10T01:38:48.125Z,100460.13
2022-11-10T01:41:36.016Z,100457.36
2022-11-10T01:44:26.210Z,100457.66
2022-11-10T01:47:14.274Z,100458.49
2022-11-10T01:50:05.107Z,100459.46
2022-11-10T01:53:00.249Z,100457.59
2022-11-10T01:55:50.073Z,100458.96
2022-11-10T01:58:45.227Z,100462.91
2022-11-10T02:01:33.109Z,100468.94
2022-11-10T02:04:22.290Z,100464.36
2022-11-10T02:07:11.410Z,100463.63
2022-11-10T02:10:01.826Z,100463.19
2022-11-10T02:12:50.422Z,100462.58
2022-11-10T02:15:40.142Z,100467.73
2022-11-10T02:18:28.255Z,100474.77
2022-11-10T02:21:21.474Z,100475.20
2022-11-10T02:24:09.291Z,100475.85
2022-11-10T02:26:58.019Z,100477.52
2022-11-10T02:29:46.055Z,100476.89
2022-11-10T02:32:33.989Z,100472.58
2022-11-10T02:35:21.574Z,100476.11
2022-11-10T02:38:09.667Z,100480.07
2022-11-10T02:40:59.281Z,100478.83
2022-11-10T02:43:47.130Z,100482.42
2022-11-10T02:46:37.683Z,100488.96
2022-11-10T02:49:25.741Z,100493.09
2022-11-10T02:52:13.752Z,100494.16
2022-11-10T02:55:01.474Z,100497.63
2022-11-10T02:57:49.152Z,100504.41
2022-11-10T03:00:38.420Z,100510.34
2022-11-10T03:03:29.033Z,100512.27
2022-11-10T03:06:16.699Z,100517.70
2022-11-10T03:09:04.776Z,100522.59
2022-11-10T03:11:52.879Z,100527.98
2022-11-10T03:14:40.788Z,100528.88
2022-11-10T03:17:28.805Z,100528.83
2022-11-10T03:20:17.778Z,100530.67
2022-11-10T03:23:06.151Z,100530.91
2022-11-10T03:25:53.734Z,100539.20
2022-11-10T03:28:42.086Z,100541.58
2022-11-10T03:31:30.169Z,100536.44
2022-11-10T03:34:18.942Z,100537.25
2022-11-10T03:37:15.938Z,100533.34
2022-11-10T03:40:04.504Z,100534.64
2022-11-10T03:42:54.765Z,100540.27
2022-11-10T03:45:45.617Z,100540.20
2022-11-10T03:48:33.078Z,100545.83
2022-11-10T03:51:21.087Z,100544.01
2022-11-10T03:54:09.305Z,100541.52
2022-11-10T03:57:01.779Z,100538.95
2022-11-10T03:59:51.155Z,100537.25
2022-11-10T04:02:39.640Z,100538.92
2022-11-10T04:05:47.810Z,100540.89
2022-11-10T04:08:54.165Z,100547.20
2022-11-10T04:12:00.581Z,100549.64
2022-11-10T04:15:07.767Z,100550.46
2022-11-10T04:18:21.266Z,100547.59
2022-11-10T04:21:11.165Z,100547.05
2022-11-10T04:24:00.944Z,100549.54
2022-11-10T04:26:53.062Z,100545.92
2022-11-10T04:29:44.641Z,100548.91
2022-11-10T04:32:37.755Z,100546.27
2022-11-10T04:35:28.442Z,100548.74
2022-11-10T04:38:19.263Z,100552.86
2022-11-10T04:41:16.202Z,100560.57
2022-11-10T04:44:04.442Z,100561.89
2022-11-10T04:46:54.683Z,100563.02
2022-11-10T04:49:42.566Z,100566.26
2022-11-10T04:52:32.694Z,100576.63
2022-11-10T04:55:21.770Z,100583.36
2022-11-10T04:58:12.031Z,100581.06
2022-11-10T05:00:59.807Z,100584.62
2022-11-10T05:03:49.427Z,100577.61
2022-11-10T05:06:37.135Z,100584.10
2022-11-10T05:09:25.364Z,100582.06
2022-11-10T05:12:18.512Z,100584.51
2022-11-10T05:15:10.388Z,100593.07
2022-11-10T05:17:58.736Z,100595.29
2022-11-10T05:20:49.531Z,100600.83
2022-11-10T05:23:41.689Z,100605.86
2022-11-10T05:26:39.348Z,100612.30
2022-11-10T05:29:27.300Z,100616.81
2022-11-10T05:32:15.128Z,100622.69
2022-11-10T05:35:05.425Z,100626.92
2022-11-10T05:37:57.623Z,100631.02
2022-11-10T05:40:49.802Z,100638.27
2022-11-10T05:43:43.643Z,100643.61
2022-11-10T05:46:32.206Z,100645.79
2022-11-10T05:49:21.916Z,100647.92
2022-11-10T05:52:12.099Z,100652.70
2022-11-10T05:55:11.742Z,100657.36
2022-11-10T05:58:01.675Z,100658.25
2022-11-10T06:00:50.562Z,100669.85
2022-11-10T06:03:38.579Z,100678.26
2022-11-10T06:06:26.523Z,100686.73
2022-11-10T06:09:15.681Z,100695.19
2022-11-10T06:12:07.512Z,100698.20
2022-11-10T06:15:00.491Z,100699.71
2022-11-10T06:17:51.016Z,100704.94
2022-11-10T06:20:38.708Z,100702.81
2022-11-10T06:23:26.687Z,100711.02
2022-11-10T06:26:16.291Z,100717.31
2022-11-10T06:29:04.538Z,100724.65
2022-11-10T06:31:52.352Z,100731.03
2022-11-10T06:34:45.665Z,100734.29
2022-11-10T06:37:33.859Z,100741.05
2022-11-10T06:40:25.105Z,100746.61
2022-11-10T06:43:13.051Z,100747.27
2022-11-10T06:46:10.785Z,100754.04
2022-11-10T06:49:00.324Z,100760.95
2022-11-10T06:51:53.739Z,100762.11
2022-11-10T06:54:43.962Z,100768.73
2022-11-10T06:57:39.204Z,100771.84
2022-11-10T07:00:29.743Z,100779.29
2022-11-10T07:03:17.579Z,100782.88
2022-11-10T07:06:10.747Z,100784.01
2022-11-10T07:08:58.559Z,100791.02
2022-11-10T07:11:48.983Z,100795.94
2022-11-10T07:14:39.244Z,100800.41
2022-11-10T07:17:29.850Z,100801.09
2022-11-10T07:20:18.085Z,100806.23
2022-11-10T07:23:16.611Z,100810.33
2022-11-10T07:26:12.636Z,100814.96
2022-11-10T07:29:17.039Z,100816.04
2022-11-10T07:32:16.947Z,100821.14
2022-11-10T07:35:09.048Z,100827.14
2022-11-10T07:38:07.467Z,100831.52
2022-11-10T07:41:18.758Z,100839.30
2022-11-10T07:44:09.121Z,100846.71
2022-11-10T07:47:01.044Z,100850.10
2022-11-10T07:50:00.815Z,100855.37
2022-11-10T07:53:17.479Z,100857.73
2022-11-10T07:56:06.559Z,100862.64
2022-11-10T07:58:55.500Z,100868.41
2022-11-10T08:01:46.901Z,100872.77
2022-11-10T08:04:35.938Z,100876.75
2022-11-10T08:07:47.816Z,100883.98
2022-11-10T08:10:48.822Z,100885.39
2022-11-10T08:13:39.410Z,100889.67
2022-11-10T08:16:33.282Z,100896.58
2022-11-10T08:19:36.612Z,100900.26
2022-11-10T08:22:24.748Z,100906.88
2022-11-10T08:26:25.456Z,100910.00
2022-11-10T08:29:45.900Z,100916.23
2022-11-10T08:32:37.312Z,100919.96
2022-11-10T08:35:35.264Z,100924.18
2022-11-10T08:38:24.864Z,100928.02
2022-11-10T08:41:16.157Z,100933.30
2022-11-10T08:44:10.704Z,100936.75
2022-11-10T08:47:04.241Z,100941.81
2022-11-10T08:49:52.608Z,100948.27
2022-11-10T08:52:43.373Z,100952.65
2022-11-10T08:55:33.922Z,100957.13
2022-11-10T08:58:24.364Z,100965.09
2022-11-10T09:01:24.000Z,100971.41
2022-11-10T09:04:16.127Z,100977.32
2022-11-10T09:07:05.179Z,100982.70
2022-11-10T09:10:06.641Z,100984.39
2022-11-10T09:13:02.015Z,100986.77
2022-11-10T09:16:07.021Z,100993.08
2022-11-10T09:19:01.807Z,100994.61
2022-11-10T09:22:05.123Z,100997.08
2022-11-10T09:24:56.750Z,101001.52
2022-11-10T09:27:52.221Z,101004.53
2022-11-10T09:31:05.550Z,101005.83
2022-11-10T09:34:04.844Z,101012.81
2022-11-10T09:36:54.289Z,101019.63
2022-11-10T09:39:46.186Z,101019.75
2022-11-10T09:42:47.539Z,101023.21
2022-11-10T09:45:43.220Z,101030.30
2022-11-10T09:48:43.179Z,101031.83
2022-11-10T09:51:56.510Z,101031.89
2022-11-10T09:55:10.822Z,101036.27
2022-11-10T09:58:04.886Z,101038.31
2022-11-10T10:01:21.484Z,101042.88
2022-11-10T10:04:48.812Z,101045.80
2022-11-10T10:07:55.070Z,101045.15
2022-11-10T10:10:52.080Z,101041.27
2022-11-10T10:14:15.914Z,101046.55
2022-11-10T10:17:48.171Z,101049.00
2022-11-10T10:21:20.891Z,101053.84
2022-11-10T10:24:22.829Z,101062.55
2022-11-10T10:27:28.940Z,101063.60
2022-11-10T10:30:24.502Z,101063.32
2022-11-10T10:33:28.370Z,101060.34
2022-11-10T10:36:32.242Z,101060.58
2022-11-10T10:39:44.892Z,101065.39
2022-11-10T10:42:36.464Z,101062.27
2022-11-10T10:45:40.767Z,101059.99
2022-11-10T10:48:37.361Z,101057.19
2022-11-10T10:51:36.899Z,101054.02
2022-11-10T10:54:39.474Z,101056.90
2022-11-10T10:57:32.328Z,101059.20
2022-11-10T11:00:27.456Z,101062.65
2022-11-10T11:03:45.928Z,101065.92
2022-11-10T11:06:36.051Z,101067.96
2022-11-10T11:09:40.293Z,101071.33
2022-11-10T11:12:35.325Z,101075.55
2022-11-10T11:15:39.500Z,101076.54
2022-11-10T11:18:32.470Z,101073.35
2022-11-10T11:21:44.918Z,101071.48
2022-11-10T11:25:18.161Z,101074.02
2022-11-10T11:28:16.430Z,101073.80
2022-11-10T11:31:28.499Z,101078.82
2022-11-10T11:34:58.233Z,101080.61
2022-11-10T11:38:16.198Z,101084.92
2022-11-10T11:41:24.647Z,101084.05
2022-11-10T11:44:48.687Z,101081.63
2022-11-10T11:52:35.663Z,101090.41
2022-11-10T11:55:37.565Z,101093.89
2022-11-10T11:58:48.366Z,101097.61
2022-11-10T12:02:39.147Z,101102.10
2022-11-10T12:05:39.318Z,101102.80
2022-11-10T12:08:43.772Z,101108.00
2022-11-10T12:12:02.075Z,101110.04
2022-11-10T12:15:34.532Z,101106.66
2022-11-10T12:18:34.845Z,101106.86
2022-11-10T12:22:11.236Z,101111.73
2022-11-10T12:25:06.087Z,101116.55
2022-11-10T12:28:19.238Z,101126.96
2022-11-10T12:31:18.545Z,101125.91
2022-11-10T12:34:45.103Z,101125.37
2022-11-10T12:37:53.146Z,101124.95
2022-11-10T12:40:50.983Z,101120.39
2022-11-10T12:44:20.299Z,101133.20
2022-11-10T12:47:16.546Z,101131.16
2022-11-10T12:50:16.233Z,101138.21
2022-11-10T12:53:16.044Z,101144.25
2022-11-10T12:56:24.262Z,101145.61
2022-11-10T12:59:21.237Z,101149.06
2022-11-10T13:02:44.673Z,101150.45
2022-11-10T13:05:42.235Z,101153.81
2022-11-10T13:08:47.375Z,101154.70
2022-11-10T13:11:37.108Z,101154.23
2022-11-10T13:14:30.122Z,101156.27
2022-11-10T13:17:27.428Z,101157.72
2022-11-10T13:20:39.813Z,101157.02
2022-11-10T13:23:29.693Z,101170.15
2022-11-10T13:26:45.214Z,101175.02
2022-11-10T13:29:53.858Z,101176.73
2022-11-10T13:32:42.028Z,101179.69
2022-11-10T13:35:29.728Z,101188.95
2022-11-10T13:42:08.807Z,101199.45
2022-11-10T13:45:35.801Z,101203.08
2022-11-10T13:49:11.603Z,101206.23
2022-11-10T13:52:15.685Z,101213.34
2022-11-10T13:55:48.313Z,101215.63
2022-11-10T13:58:36.865Z,101226.76
2022-11-10T14:01:30.510Z,101230.48
2022-11-10T14:04:49.050Z,101229.33
2022-11-10T14:07:46.704Z,101232.20
2022-11-10T14:10:43.006Z,101238.15
2022-11-10T14:14:11.380Z,101241.94
2022-11-10T14:16:59.230Z,101247.35
2022-11-10T14:19:47.428Z,101252.52
2022-11-10T14:22:44.554Z,101251.23
2022-11-10T14:25:39.657Z,101255.25
2022-11-10T14:28:32.512Z,101255.61
2022-11-10T14:31:25.375Z,101258.21
2022-11-10T14:34:18.642Z,101256.11
2022-11-10T14:37:06.786Z,101262.59
2022-11-10T14:40:00.784Z,101266.90
2022-11-10T14:42:51.623Z,101274.20
2022-11-10T14:45:51.181Z,101281.94
2022-11-10T14:48:39.400Z,101287.27
2022-11-10T14:51:31.368Z,101293.11
2022-11-10T14:54:28.240Z,101291.79
2022-11-10T14:57:18.919Z,101296.97
2022-11-10T15:00:25.412Z,101301.45
2022-11-10T15:03:34.785Z,101308.48
2022-11-10T15:06:22.623Z,101316.60
2022-11-10T15:09:40.242Z,101317.79
2022-11-10T15:12:27.987Z,101322.68
2022-11-10T15:15:22.956Z,101329.23
2022-11-10T15:18:29.461Z,101332.48
2022-11-10T15:21:22.996Z,101331.54
2022-11-10T15:24:20.241Z,101338.45
2022-11-10T15:27:27.718Z,101343.14
2022-11-10T15:30:24.560Z,101342.58
2022-11-10T15:33:14.626Z,101342.14
2022-11-10T15:36:40.799Z,101345.21
2022-11-10T15:39:30.669Z,101344.77
2022-11-10T15:42:24.936Z,101343.77
2022-11-10T15:45:17.870Z,101347.42
2022-11-10T15:48:27.225Z,101354.68
2022-11-10T15:51:24.699Z,101359.48
2022-11-10T15:54:14.805Z,101366.69
2022-11-10T15:57:02.748Z,101372.11
2022-11-10T15:59:50.591Z,101380.15
2022-11-10T16:02:39.569Z,101386.46
2022-11-10T16:05:30.738Z,101394.69
2022-11-10T16:08:23.074Z,101401.00
2022-11-10T16:11:22.706Z,101402.11
2022-11-10T16:14:15.696Z,101414.23
2022-11-10T16:17:03.433Z,101424.25
2022-11-10T16:19:51.005Z,101428.48
2022-11-10T16:22:41.910Z,101435.36
2022-11-10T16:25:29.908Z,101439.63
2022-11-10T16:28:23.812Z,101444.77
2022-11-10T16:31:16.458Z,101446.08
2022-11-10T16:34:05.809Z,101454.50
2022-11-10T16:36:53.362Z,101459.74
2022-11-10T16:39:41.163Z,101466.93
2022-11-10T16:42:33.289Z,101468.56
2022-11-10T16:45:31.338Z,101471.91
2022-11-10T16:48:23.878Z,101478.39
2022-11-10T16:51:22.230Z,101482.77
2022-11-10T16:54:10.773Z,101486.98
2022-11-10T16:57:16.585Z,101488.07
2022-11-10T17:00:05.050Z,101489.73
2022-11-10T17:03:05.538Z,101493.24
2022-11-10T17:05:54.148Z,101494.31
2022-11-10T17:08:43.715Z,101493.48
2022-11-10T17:11:30.974Z,101492.15
2022-11-10T17:14:20.691Z,101492.52
2022-11-10T17:17:18.603Z,101488.21
2022-11-10T17:20:08.702Z,101488.27
2022-11-10T17:22:57.019Z,101490.37
2022-11-10T17:25:57.193Z,101491.08
2022-11-10T17:28:48.457Z,101495.14
2022-11-10T17:31:42.634Z,101494.98
2022-11-10T17:34:35.870Z,101494.52
2022-11-10T17:37:28.738Z,101489.73
2022-11-10T17:40:31.557Z,101493.20
2022-11-10T17:43:34.627Z,101492.28
2022-11-10T17:46:27.222Z,101496.36
2022-11-10T17:49:18.110Z,101494.51
2022-11-10T17:52:18.326Z,101487.77
2022-11-10T17:55:07.692Z,101493.16
2022-11-10T17:58:00.713Z,101492.63
2022-11-10T18:00:50.551Z,101496.11
2022-11-10T18:03:38.459Z,101497.98
2022-11-10T18:06:25.971Z,101504.70
2022-11-10T18:09:13.527Z,101503.06
2022-11-10T18:12:01.067Z,101507.52
2022-11-10T18:14:49.148Z,101517.20
2022-11-10T18:17:36.579Z,101518.87
2022-11-10T18:20:24.623Z,101520.90
2022-11-10T18:23:13.389Z,101524.33
2022-11-10T18:26:10.467Z,101524.30
2022-11-10T18:29:05.677Z,101528.80
2022-11-10T18:31:53.300Z,101531.38
2022-11-10T18:34:42.981Z,101529.45
2022-11-10T18:37:38.794Z,101525.21
2022-11-10T18:40:29.834Z,101527.52
2022-11-10T18:43:21.147Z,101535.52
2022-11-10T18:46:12.334Z,101535.67
2022-11-10T18:49:01.473Z,101539.14
2022-11-10T18:51:49.519Z,101546.98
2022-11-10T18:54:37.088Z,101549.34
2022-11-10T18:57:25.207Z,101551.69
2022-11-10T19:00:19.874Z,101550.27
2022-11-10T19:03:12.129Z,101556.67
2022-11-10T19:06:01.692Z,101562.79
2022-11-10T19:08:49.961Z,101567.02
2022-11-10T19:11:38.627Z,101572.30
2022-11-10T19:14:26.772Z,101574.06
2022-11-10T19:17:17.506Z,101579.60
2022-11-10T19:20:05.885Z,101582.17
2022-11-10T19:22:55.861Z,101579.69
2022-11-10T19:25:47.061Z,101582.45
2022-11-10T19:28:35.015Z,101575.63
2022-11-10T19:31:25.515Z,101578.89
2022-11-10T19:34:18.705Z,101582.20
2022-11-10T19:37:08.594Z,101579.41
2022-11-10T19:39:56.752Z,101582.88
2022-11-10T19:42:45.553Z,101585.29
2022-11-10T19:45:34.692Z,101587.35
2022-11-10T19:48:28.151Z,101594.98
2022-11-10T19:51:20.486Z,101600.10
2022-11-10T19:54:12.871Z,101607.38
2022-11-10T19:57:07.525Z,101610.19
2022-11-10T19:59:55.632Z,101611.99
2022-11-10T20:02:46.026Z,101615.02
2022-11-10T20:05:35.171Z,101609.17
2022-11-10T20:08:23.531Z,101606.44
2022-11-10T20:11:22.219Z,101605.60
2022-11-10T20:14:20.280Z,101603.23
2022-11-10T20:17:17.411Z,101605.20
2022-11-10T20:20:12.180Z,101608.05
2022-11-10T20:23:23.244Z,101611.76
2022-11-10T20:26:19.430Z,101610.91
2022-11-10T20:29:07.850Z,101603.45
2022-11-10T20:31:58.976Z,101610.76
2022-11-10T20:34:47.063Z,101605.39
2022-11-10T20:37:37.727Z,101608.59
2022-11-10T20:40:43.502Z,101617.90
2022-11-10T20:43:38.023Z,101622.18
2022-11-10T20:46:54.065Z,101619.59
2022-11-10T20:49:39.400Z,101618.62
2022-11-10T20:52:27.086Z,101614.14
2022-11-10T20:55:22.131Z,101618.02
2022-11-10T20:58:28.010Z,101622.44
2022-11-10T21:01:16.626Z,101621.06
2022-11-10T21:04:06.330Z,101624.73
2022-11-10T21:06:53.959Z,101621.98
2022-11-10T21:09:44.764Z,101625.13
2022-11-10T21:12:50.929Z,101632.63
2022-11-10T21:15:43.421Z,101635.06
2022-11-10T21:18:36.326Z,101632.34
2022-11-10T21:21:34.146Z,101632.71
2022-11-10T21:24:29.569Z,101626.65
2022-11-10T21:27:17.629Z,101625.12
2022-11-10T21:30:10.113Z,101623.57
2022-11-10T21:33:00.706Z,101629.87
2022-11-10T21:35:48.526Z,101633.05
2022-11-10T21:38:39.989Z,101629.85
2022-11-10T21:41:27.264Z,101630.81
2022-11-10T21:44:15.219Z,101633.56
2022-11-10T21:47:05.482Z,101637.17
2022-11-10T21:49:56.496Z,101635.92
2022-11-10T21:52:46.198Z,101636.03
2022-11-10T21:55:33.893Z,101638.55
2022-11-10T21:58:22.525Z,101640.22
2022-11-10T22:01:24.089Z,101646.39
2022-11-10T22:04:15.126Z,101653.09
2022-11-10T22:07:23.636Z,101658.56
2022-11-10T22:10:30.485Z,101663.31
2022-11-10T22:13:39.268Z,101662.17
2022-11-10T22:16:52.890Z,101661.75
2022-11-10T22:19:41.121Z,101665.48
2022-11-10T22:22:28.915Z,101669.34
2022-11-10T22:25:17.893Z,101671.61
2022-11-10T22:28:05.955Z,101673.03
2022-11-10T22:30:53.836Z,101672.89
2022-11-10T22:33:43.196Z,101675.37
2022-11-10T22:36:34.523Z,101677.65
2022-11-10T22:39:23.214Z,101677.68
2022-11-10T22:42:32.793Z,101680.30
2022-11-10T22:45:20.387Z,101683.09
2022-11-10T22:48:26.034Z,101677.21
2022-11-10T22:51:13.516Z,101676.52
2022-11-10T22:54:02.369Z,101677.75
2022-11-10T22:56:51.662Z,101682.76
2022-11-10T22:59:39.236Z,101687.95
2022-11-10T23:02:27.314Z,101690.52
2022-11-10T23:05:15.624Z,101690.86
2022-11-10T23:08:03.960Z,101699.36
2022-11-10T23:11:04.380Z,101702.10
2022-11-10T23:13:52.942Z,101704.86
2022-11-10T23:16:40.727Z,101713.16
2022-11-10T23:19:28.583Z,101716.95
2022-11-10T23:22:18.936Z,101719.54
2022-11-10T23:25:07.650Z,101721.60
2022-11-10T23:27:56.565Z,101718.64
2022-11-10T23:30:44.279Z,101724.02
2022-11-10T23:33:33.547Z,101726.42
2022-11-10T23:36:26.581Z,101731.13
2022-11-10T23:39:14.048Z,101735.30
2022-11-10T23:42:01.706Z,101735.31
2022-11-10T23:44:49.481Z,101732.89
2022-11-10T23:47:36.926Z,101735.34
2022-11-10T23:50:28.840Z,101737.27
2022-11-10T23:53:19.296Z,101737.79
2022-11-10T23:56:12.106Z,101731.04
2022-11-10T23:59:02.215Z,101725.67
